createdAt,value
2022-09-17T06:14:39.975Z,14.01
2022-09-17T06:24:40.123Z,11.33
2022-09-17T06:34:40.123Z,12.47
2022-09-17T06:44:40.205Z,11.42
2022-09-17T06:54:40.082Z,12.72
2022-09-17T07:04:39.900Z,15.16
2022-09-17T07:14:39.885Z,10.23
2022-09-17T07:24:40.154Z,12.43
2022-09-17T07:34:40.049Z,12.70
2022-09-17T07:44:39.879Z,15.79
2022-09-17T07:54:39.991Z,13.83
2022-09-17T08:04:40.181Z,20.43
2022-09-17T08:14:40.092Z,18.26
2022-09-17T08:24:39.968Z,15.76
2022-09-17T08:34:40.118Z,13.99
2022-09-17T08:44:40.095Z,17.83
2022-09-17T08:54:40.432Z,18.02
2022-09-17T09:04:40.315Z,14.12
2022-09-17T09:14:40.368Z,16.67
2022-09-17T09:24:40.310Z,18.86
2022-09-17T09:34:40.400Z,17.07
2022-09-17T09:44:40.319Z,16.84
2022-09-17T09:54:40.475Z,13.55
2022-09-17T10:04:40.541Z,19.27
2022-09-17T10:14:40.369Z,17.00
2022-09-17T10:24:40.688Z,14.42
2022-09-17T10:34:40.319Z,16.80
2022-09-17T10:44:40.352Z,18.06
2022-09-17T10:54:40.410Z,18.49
2022-09-17T11:04:40.577Z,20.74
2022-09-17T11:14:40.602Z,18.66
2022-09-17T11:24:40.417Z,21.22
2022-09-17T11:34:40.472Z,23.05
2022-09-17T11:44:40.299Z,20.78
2022-09-17T11:54:41.583Z,15.85
2022-09-17T12:04:40.501Z,15.81
2022-09-17T12:14:40.343Z,26.58
2022-09-17T12:24:40.429Z,19.51
2022-09-17T12:34:40.653Z,16.20
2022-09-17T12:44:40.411Z,13.20
2022-09-17T12:54:45.034Z,6.71
2022-09-17T13:04:59.911Z,6.33
2022-09-17T13:14:40.572Z,8.12
2022-09-17T13:24:40.472Z,13.52
2022-09-17T13:34:40.516Z,7.75
2022-09-17T13:44:40.557Z,11.98
2022-09-17T13:54:40.607Z,13.00
2022-09-17T14:04:40.607Z,13.26
2022-09-17T14:14:40.617Z,15.26
2022-09-17T14:24:40.475Z,12.97
2022-09-17T14:34:40.548Z,14.78
2022-09-17T14:44:40.499Z,13.96
2022-09-17T14:54:40.567Z,14.55
2022-09-17T15:04:40.576Z,15.56
2022-09-17T15:14:42.623Z,15.55
2022-09-17T15:24:40.663Z,11.40
2022-09-17T15:34:40.676Z,13.70
2022-09-17T15:44:40.732Z,12.84
2022-09-17T15:54:40.657Z,7.96
2022-09-17T16:04:40.601Z,10.44
2022-09-17T16:14:40.681Z,10.23
2022-09-17T16:24:40.695Z,9.08
2022-09-17T16:34:40.683Z,11.12
2022-09-17T16:44:40.636Z,12.16
2022-09-17T16:54:40.712Z,10.25
2022-09-17T17:04:40.705Z,11.38
2022-09-17T17:14:40.680Z,11.12
2022-09-17T17:24:40.737Z,11.86
2022-09-17T17:34:40.773Z,13.03
2022-09-17T17:44:40.843Z,11.64
2022-09-17T17:54:40.758Z,13.90
2022-09-17T18:04:40.764Z,14.14
2022-09-17T18:14:40.745Z,10.11
2022-09-17T18:24:40.702Z,10.50
2022-09-17T18:34:40.776Z,10.04
2022-09-17T18:44:40.786Z,11.03
2022-09-17T18:54:40.677Z,10.61
2022-09-17T19:04:40.886Z,9.47
2022-09-17T19:14:40.724Z,9.54
